Time;durP1;ratioP1;P1;durP2;ratioP2;P2;SDS_P1;SDS_P2;PMS_P1;PMS_P2;Temp;Humidity;BMP_temperature;BMP_pressure;BME280_temperature;BME280_humidity;BME280_pressure;Samples;Min_cycle;Max_cycle;Signal;HPM_P1;HPM_P2
2023/10/12 00:02:13;;;;;;;15.43;7.00;;;14.90;95.10;;;;;;4807592;29;20353;-79
2023/10/12 00:05:11;;;;;;;13.77;7.40;;;14.80;94.80;;;;;;4799498;29;20104;-78
2023/10/12 00:08:22;;;;;;;11.95;6.18;;;14.80;95.20;;;;;;4825223;29;20103;-79
2023/10/12 00:11:11;;;;;;;10.88;4.53;;;14.70;95.60;;;;;;4813528;29;20224;-78
2023/10/12 00:13:42;;;;;;;11.95;4.75;;;14.70;95.90;;;;;;4798954;29;20047;-79
2023/10/12 00:16:09;;;;;;;10.23;4.50;;;14.90;95.50;;;;;;4797940;29;20254;-76
2023/10/12 00:18:38;;;;;;;10.95;3.72;;;15.20;95.00;;;;;;4814008;29;20278;-77
2023/10/12 00:21:25;;;;;;;8.02;3.65;;;15.40;94.90;;;;;;4836999;29;20037;-78
2023/10/12 00:24:13;;;;;;;10.55;3.47;;;15.50;94.30;;;;;;4868950;29;20041;-79
2023/10/12 00:26:44;;;;;;;10.05;3.50;;;15.60;94.00;;;;;;4888840;29;20028;-77
2023/10/12 00:29:22;;;;;;;9.63;3.95;;;15.70;93.90;;;;;;4888738;29;20069;-78
2023/10/12 06:10:09;;;;;;;19.83;6.78;;;14.80;97.00;;;;;;5067971;24;20061;-77
2023/10/12 06:12:35;;;;;;;17.17;7.90;;;14.80;96.90;;;;;;4893829;29;20028;-77
2023/10/12 06:21:42;;;;;;;33.95;9.40;;;15.10;95.50;;;;;;4848461;29;20038;-77
2023/10/12 06:24:40;;;;;;;33.17;8.95;;;15.30;96.00;;;;;;4840091;29;20036;-78
2023/10/12 06:30:32;;;;;;;23.23;7.53;;;15.50;95.50;;;;;;4842540;29;20054;-78
2023/10/12 06:33:30;;;;;;;17.70;6.93;;;15.70;95.60;;;;;;4865649;29;20040;-78
2023/10/12 06:48:58;;;;;;;11.68;4.65;;;16.80;93.40;;;;;;4869256;29;20112;-79
2023/10/12 06:52:22;;;;;;;11.48;4.78;;;17.00;92.60;;;;;;4855142;29;20151;-79
2023/10/12 06:55:08;;;;;;;13.25;4.85;;;17.20;92.10;;;;;;4869150;29;20233;-78
2023/10/12 07:02:51;;;;;;;11.88;4.68;;;17.60;91.70;;;;;;4762130;30;20054;-78
2023/10/12 07:05:38;;;;;;;11.52;4.45;;;17.80;91.20;;;;;;4754945;30;20044;-79
2023/10/12 07:08:42;;;;;;;12.63;4.47;;;18.00;90.80;;;;;;4816058;29;20236;-79
2023/10/12 07:11:55;;;;;;;14.35;4.63;;;18.20;90.40;;;;;;4790476;30;20033;-79
2023/10/12 07:14:59;;;;;;;7.90;4.00;;;18.40;90.30;;;;;;4797351;30;20317;-78
2023/10/12 07:17:57;;;;;;;15.02;5.20;;;18.60;90.20;;;;;;4796715;29;20094;-78
2023/10/12 07:24:19;;;;;;;8.38;3.80;;;19.10;88.40;;;;;;4794299;30;20084;-79
2023/10/12 07:26:48;;;;;;;8.02;4.13;;;19.30;87.40;;;;;;4781500;30;20031;-79
2023/10/12 07:35:31;;;;;;;19.95;5.05;;;19.70;85.90;;;;;;4797146;30;20049;-78
2023/10/12 07:41:28;;;;;;;8.75;3.80;;;19.70;85.60;;;;;;4854248;29;20037;-78
2023/10/12 07:44:12;;;;;;;11.30;4.18;;;19.60;84.80;;;;;;4871109;29;20089;-76
2023/10/12 07:46:42;;;;;;;9.88;4.53;;;19.50;85.40;;;;;;4906568;29;20051;-79
2023/10/12 07:55:04;;;;;;;7.75;4.20;;;19.10;86.60;;;;;;4888082;29;20255;-79
2023/10/12 07:57:58;;;;;;;10.98;4.35;;;19.20;86.60;;;;;;4876624;29;20436;-79
2023/10/12 08:00:41;;;;;;;9.77;4.22;;;19.20;86.90;;;;;;4889839;29;20021;-78
2023/10/12 08:03:58;;;;;;;7.82;4.20;;;19.20;86.90;;;;;;4875282;29;20138;-79
2023/10/12 08:06:42;;;;;;;9.63;4.05;;;19.30;87.00;;;;;;4883143;29;20052;-79
2023/10/12 08:10:15;;;;;;;11.93;3.92;;;19.40;86.90;;;;;;4901421;29;20053;-78
2023/10/12 08:12:38;;;;;;;10.82;5.10;;;19.40;86.00;;;;;;4884598;29;20067;-77
2023/10/12 08:15:17;;;;;;;8.25;4.15;;;19.40;86.20;;;;;;4889405;29;20025;-78
2023/10/12 08:18:50;;;;;;;13.00;4.95;;;19.50;86.80;;;;;;4873512;29;20040;-79
2023/10/12 08:24:22;;;;;;;13.20;4.95;;;19.40;86.70;;;;;;4832610;29;20041;-78
2023/10/12 08:27:18;;;;;;;14.93;5.90;;;19.40;86.80;;;;;;4832357;29;20037;-77
2023/10/12 08:30:24;;;;;;;15.27;5.53;;;19.50;87.10;;;;;;4832335;29;20451;-78
2023/10/12 08:50:58;;;;;;;11.00;4.15;;;19.70;86.20;;;;;;4832095;29;20040;-78
2023/10/12 08:58:03;;;;;;;11.10;4.00;;;20.10;82.30;;;;;;4795565;30;20069;-79
2023/10/12 09:00:42;;;;;;;9.23;3.90;;;20.30;81.60;;;;;;4788965;30;20047;-78
2023/10/12 09:07:26;;;;;;;8.02;3.60;;;20.50;80.00;;;;;;4779486;30;20038;-77
2023/10/12 09:14:13;;;;;;;7.00;3.58;;;20.70;79.30;;;;;;4830137;29;20117;-78
2023/10/12 09:16:39;;;;;;;8.85;3.70;;;20.80;78.60;;;;;;4834542;29;20061;-78
2023/10/12 09:19:31;;;;;;;11.68;3.83;;;20.80;78.80;;;;;;4805168;29;20120;-79
2023/10/12 09:26:46;;;;;;;7.60;3.50;;;20.90;78.20;;;;;;4893832;29;20361;-78
2023/10/12 09:30:35;;;;;;;9.98;3.75;;;21.10;77.90;;;;;;4883435;29;20093;-78
2023/10/12 09:39:53;;;;;;;11.02;4.20;;;21.30;77.80;;;;;;4762471;30;20411;-78
2023/10/12 09:49:24;;;;;;;11.30;4.72;;;21.40;78.70;;;;;;4762047;30;20031;-78
2023/10/12 09:52:46;;;;;;;11.80;5.28;;;21.50;79.10;;;;;;4798787;30;20043;-78
2023/10/12 10:09:37;;;;;;;15.02;6.10;;;21.50;79.90;;;;;;4796434;30;20047;-80
2023/10/12 10:13:24;;;;;;;16.70;6.63;;;21.50;80.20;;;;;;4782486;29;20204;-79
2023/10/12 10:15:59;;;;;;;17.05;5.65;;;21.70;80.10;;;;;;4853548;29;20045;-79
2023/10/12 10:19:10;;;;;;;14.07;6.78;;;21.70;79.30;;;;;;4877499;29;20032;-78
2023/10/12 10:22:20;;;;;;;;;;;;;;;;;;;;;
2023/10/12 10:24:57;;;;;;;14.35;5.88;;;21.90;78.80;;;;;;4885352;29;20051;-78
2023/10/12 10:27:58;;;;;;;13.52;6.40;;;22.00;79.00;;;;;;4872279;29;20046;-78
2023/10/12 10:30:42;;;;;;;11.27;5.93;;;22.10;78.60;;;;;;4878582;29;20068;-78
2023/10/12 10:33:38;;;;;;;14.77;5.90;;;22.10;78.50;;;;;;4845742;29;20231;-79
2023/10/12 10:36:34;;;;;;;8.77;5.10;;;22.20;78.00;;;;;;4815730;29;20059;-79
2023/10/12 10:42:04;;;;;;;15.43;6.13;;;22.10;77.80;;;;;;4814675;29;20348;-79
2023/10/12 10:44:45;;;;;;;12.88;4.95;;;22.10;78.20;;;;;;4797316;29;20277;-79
2023/10/12 10:47:15;;;;;;;11.95;5.03;;;22.00;78.30;;;;;;4816239;29;20051;-79
2023/10/12 10:52:59;;;;;;;11.38;4.93;;;22.00;78.10;;;;;;4797494;30;20126;-80
2023/10/12 10:55:31;;;;;;;10.75;5.35;;;22.00;78.40;;;;;;4797359;29;20381;-77
2023/10/12 10:57:58;;;;;;;12.00;5.53;;;22.00;78.70;;;;;;4815066;29;20225;-77
2023/10/12 11:00:33;;;;;;;10.57;5.38;;;22.00;78.50;;;;;;4814763;29;20038;-77
2023/10/12 11:03:05;;;;;;;16.85;6.35;;;22.10;78.60;;;;;;4814951;29;20034;-76
2023/10/12 11:05:33;;;;;;;11.50;5.00;;;22.20;78.10;;;;;;4799494;29;20039;-75
2023/10/12 11:08:18;;;;;;;9.27;4.53;;;22.30;77.70;;;;;;4814718;29;20231;-78
2023/10/12 11:11:37;;;;;;;12.82;5.13;;;22.60;77.40;;;;;;4828811;29;20121;-78
2023/10/12 11:13:32;;;;;;;10.63;4.65;;;22.90;77.50;;;;;;4866387;29;20056;-79
2023/10/12 11:16:05;;;;;;;14.05;4.82;;;23.00;76.10;;;;;;4890279;29;20334;-78
2023/10/12 11:19:00;;;;;;;9.15;4.35;;;23.00;76.30;;;;;;4858335;29;20025;-80
2023/10/12 11:25:20;;;;;;;8.93;4.20;;;23.10;75.70;;;;;;4874030;29;20027;-80
2023/10/12 11:27:53;;;;;;;10.13;4.65;;;23.20;75.10;;;;;;4889747;29;20032;-78
2023/10/12 11:30:42;;;;;;;11.98;4.47;;;23.20;75.50;;;;;;4857911;29;20315;-79
2023/10/12 11:33:44;;;;;;;7.97;4.47;;;23.30;75.50;;;;;;4888585;29;20029;-81
2023/10/12 11:36:45;;;;;;;7.25;4.13;;;23.30;75.40;;;;;;4890333;29;20052;-79
2023/10/12 11:40:09;;;;;;;12.52;3.88;;;23.30;75.50;;;;;;4849780;29;20066;-80
2023/10/12 11:43:00;;;;;;;8.23;4.00;;;23.40;75.80;;;;;;4837533;29;20040;-79
2023/10/12 11:46:03;;;;;;;10.40;4.20;;;23.50;75.20;;;;;;4834761;29;20037;-78
2023/10/12 11:48:32;;;;;;;7.82;4.55;;;23.70;74.20;;;;;;4848819;29;20315;-80
2023/10/12 11:54:20;;;;;;;9.88;4.68;;;24.00;75.00;;;;;;4849216;29;20079;-79
2023/10/12 11:57:11;;;;;;;12.90;4.72;;;24.10;74.30;;;;;;4838979;29;20285;-79
2023/10/12 11:59:49;;;;;;;14.73;5.60;;;24.30;74.40;;;;;;4849059;29;20049;-79
2023/10/12 12:02:16;;;;;;;14.45;5.47;;;24.50;74.10;;;;;;4850466;29;20074;-80
2023/10/12 12:04:43;;;;;;;9.77;4.97;;;24.60;73.10;;;;;;4852560;29;20033;-79
2023/10/12 12:13:42;;;;;;;10.30;5.13;;;24.90;72.30;;;;;;4872307;29;20037;-81
2023/10/12 12:16:48;;;;;;;11.45;4.45;;;25.00;71.50;;;;;;4863382;29;20028;-80
2023/10/12 12:22:50;;;;;;;8.13;3.95;;;24.50;72.70;;;;;;4874217;29;20040;-79
2023/10/12 12:25:51;;;;;;;17.90;5.50;;;24.20;73.90;;;;;;4869251;29;20080;-78
2023/10/12 12:28:21;;;;;;;11.02;4.50;;;24.00;74.60;;;;;;4799117;29;20043;-79
2023/10/12 12:31:32;;;;;;;11.00;4.93;;;23.70;75.10;;;;;;4814331;29;20138;-77
2023/10/12 12:34:21;;;;;;;10.35;4.75;;;23.60;75.40;;;;;;4799325;29;20037;-78
2023/10/12 12:37:33;;;;;;;12.10;4.30;;;23.60;75.90;;;;;;4798377;29;20106;-78
2023/10/12 12:40:45;;;;;;;9.30;3.85;;;23.50;76.30;;;;;;4798640;29;20218;-79
2023/10/12 12:47:25;;;;;;;9.60;4.18;;;23.50;76.80;;;;;;4778541;29;20074;-78
2023/10/12 12:50:21;;;;;;;11.10;5.40;;;23.50;77.20;;;;;;4790571;29;20034;-77
2023/10/12 12:55:56;;;;;;;13.35;4.82;;;23.50;76.80;;;;;;4795305;30;20078;-77
2023/10/12 12:59:07;;;;;;;11.43;5.25;;;23.50;77.40;;;;;;4790165;30;20049;-77
2023/10/12 13:01:33;;;;;;;11.50;4.50;;;23.50;77.40;;;;;;4809399;29;20042;-77
2023/10/12 13:04:03;;;;;;;10.05;5.13;;;23.50;77.00;;;;;;4868326;29;20037;-79
2023/10/12 13:07:18;;;;;;;8.93;4.28;;;23.40;77.60;;;;;;4852377;29;20036;-77
2023/10/12 13:09:47;;;;;;;13.60;4.78;;;23.30;77.90;;;;;;4850896;29;20050;-78
2023/10/12 13:12:13;;;;;;;11.73;4.75;;;23.20;77.80;;;;;;4849751;29;20062;-77
2023/10/12 13:18:05;;;;;;;14.13;5.50;;;23.20;78.60;;;;;;4830976;29;20042;-78
2023/10/12 13:24:12;;;;;;;13.48;5.28;;;23.30;79.00;;;;;;4831619;29;20220;-78
2023/10/12 13:26:43;;;;;;;11.38;4.45;;;23.50;78.60;;;;;;4815533;29;20042;-78
2023/10/12 13:29:13;;;;;;;11.10;4.82;;;23.60;78.00;;;;;;4831898;29;20046;-78
2023/10/12 13:31:39;;;;;;;12.43;4.63;;;23.70;77.50;;;;;;4817021;29;20039;-80
2023/10/12 13:34:05;;;;;;;14.35;5.32;;;23.90;77.00;;;;;;4851974;29;20151;-79
2023/10/12 13:36:46;;;;;;;12.60;4.95;;;24.00;76.40;;;;;;4855622;29;20057;-79
2023/10/12 13:39:12;;;;;;;9.55;4.70;;;24.00;75.90;;;;;;4870311;29;20069;-78
2023/10/12 13:41:40;;;;;;;;;;;24.10;75.90;;;;;;4854657;29;20026;-80
2023/10/12 13:44:06;;;;;;;14.80;4.82;;;24.20;76.00;;;;;;4839407;29;19944;-78
2023/10/12 13:46:38;;;;;;;10.85;4.63;;;24.30;75.70;;;;;;4882117;29;20040;-76
2023/10/12 13:49:06;;;;;;;14.55;4.60;;;24.20;75.80;;;;;;4876804;29;20025;-78
2023/10/12 13:51:32;;;;;;;10.60;4.40;;;24.30;74.60;;;;;;4865144;29;20046;-77
2023/10/12 13:54:45;;;;;;;12.23;5.32;;;24.20;74.70;;;;;;4874049;29;20069;-81
2023/10/12 13:57:14;;;;;;;11.35;4.85;;;24.50;74.60;;;;;;4852242;29;20054;-81
2023/10/12 14:00:06;;;;;;;9.48;5.00;;;24.50;73.60;;;;;;4868725;29;20139;-80
2023/10/12 14:02:36;;;;;;;11.52;4.40;;;24.50;73.40;;;;;;4855442;29;20026;-79
2023/10/12 14:05:08;;;;;;;14.35;5.20;;;24.50;73.90;;;;;;4873121;29;20097;-77
2023/10/12 14:07:41;;;;;;;9.10;4.30;;;24.50;73.80;;;;;;4839461;29;20069;-79
2023/10/12 14:10:07;;;;;;;10.15;4.93;;;24.70;73.80;;;;;;4893997;29;20048;-79
2023/10/12 14:12:33;;;;;;;12.75;5.03;;;24.60;74.10;;;;;;4893880;29;20380;-77
2023/10/12 14:15:36;;;;;;;12.27;4.93;;;24.80;73.50;;;;;;4908508;29;20040;-80
2023/10/12 14:18:04;;;;;;;10.30;4.57;;;24.80;73.50;;;;;;4833541;29;20111;-78
2023/10/12 14:20:32;;;;;;;13.98;5.13;;;24.90;74.00;;;;;;4834614;29;20095;-79
2023/10/12 14:23:07;;;;;;;11.43;4.78;;;24.90;73.40;;;;;;4833973;29;20050;-79
2023/10/12 14:26:03;;;;;;;11.20;4.75;;;24.90;74.00;;;;;;4816241;29;20053;-77
2023/10/12 14:36:23;;;;;;;12.02;4.47;;;25.30;73.00;;;;;;4833560;29;20090;-79
2023/10/12 14:39:29;;;;;;;13.05;5.32;;;25.40;72.70;;;;;;4833584;29;20094;-80
2023/10/12 14:42:29;;;;;;;14.82;5.00;;;25.40;72.70;;;;;;4833317;29;20087;-77
2023/10/12 14:44:55;;;;;;;14.73;5.63;;;25.50;73.00;;;;;;4833605;29;20194;-78
2023/10/12 14:47:40;;;;;;;18.60;6.03;;;25.40;72.40;;;;;;4834136;29;20038;-78
2023/10/12 14:50:31;;;;;;;13.88;6.40;;;25.50;72.50;;;;;;4840701;29;20033;-77
2023/10/12 14:53:21;;;;;;;14.20;6.05;;;25.70;72.00;;;;;;4830862;29;20051;-78
2023/10/12 14:55:51;;;;;;;15.50;6.25;;;25.80;72.00;;;;;;4849866;29;20121;-79
2023/10/12 14:58:19;;;;;;;11.38;5.63;;;25.80;71.50;;;;;;4859007;29;20061;-78
2023/10/12 15:00:45;;;;;;;11.80;5.95;;;25.60;71.60;;;;;;4849499;29;20117;-80
2023/10/12 15:03:26;;;;;;;10.90;5.90;;;25.50;71.10;;;;;;4870161;29;20335;-78
2023/10/12 15:06:12;;;;;;;12.23;5.30;;;25.40;72.00;;;;;;4839279;29;20053;-78
2023/10/12 15:09:35;;;;;;;10.35;5.30;;;25.30;72.20;;;;;;4839703;29;20049;-79
2023/10/12 15:12:29;;;;;;;12.20;5.30;;;25.30;72.60;;;;;;4821336;29;20236;-80
2023/10/12 15:14:55;;;;;;;11.38;4.97;;;25.30;72.40;;;;;;4833425;29;20646;-79
2023/10/12 15:17:47;;;;;;;11.93;5.47;;;25.40;72.10;;;;;;4832401;29;20095;-78
2023/10/12 15:20:18;;;;;;;10.40;4.53;;;25.30;72.10;;;;;;4779025;30;20354;-77
2023/10/12 15:22:45;;;;;;;9.73;4.95;;;25.30;71.90;;;;;;4798060;29;20046;-81
2023/10/12 15:25:34;;;;;;;10.20;4.70;;;25.20;72.10;;;;;;4831780;29;20054;-79
2023/10/12 15:28:02;;;;;;;10.65;4.45;;;25.10;71.50;;;;;;4843539;29;20038;-79
2023/10/12 15:30:43;;;;;;;9.65;4.18;;;25.10;71.70;;;;;;4853230;29;20034;-78
2023/10/12 15:33:12;;;;;;;13.88;4.93;;;25.20;71.30;;;;;;4853279;29;20093;-80
2023/10/12 15:36:10;;;;;;;12.52;4.80;;;25.10;71.30;;;;;;4842231;29;20037;-78
2023/10/12 15:42:31;;;;;;;9.27;5.10;;;25.10;72.20;;;;;;4779204;30;20051;-79
2023/10/12 15:45:46;;;;;;;10.43;4.25;;;24.90;72.20;;;;;;4826881;29;20025;-80
2023/10/12 15:48:31;;;;;;;9.15;4.70;;;24.90;72.70;;;;;;4833000;29;20050;-77
2023/10/12 15:50:57;;;;;;;12.05;5.85;;;24.90;72.10;;;;;;4829591;29;20386;-77
2023/10/12 15:53:24;;;;;;;12.02;5.07;;;24.80;72.60;;;;;;4830937;29;20050;-78
2023/10/12 15:55:56;;;;;;;10.85;5.35;;;24.40;75.00;;;;;;4818229;29;20097;-78
2023/10/12 15:58:31;;;;;;;10.68;4.80;;;24.30;75.20;;;;;;4817372;29;20106;-80
2023/10/12 16:01:17;;;;;;;8.88;4.40;;;24.10;75.90;;;;;;4810934;29;20049;-79
2023/10/12 16:04:08;;;;;;;10.10;4.68;;;23.90;74.40;;;;;;4831969;29;20302;-78
2023/10/12 16:07:05;;;;;;;11.90;4.22;;;23.60;75.20;;;;;;4828252;29;20201;-78
2023/10/12 16:09:34;;;;;;;9.73;3.72;;;23.60;72.20;;;;;;4823607;29;20314;-78
2023/10/12 16:11:59;;;;;;;8.65;3.47;;;23.50;70.30;;;;;;4829574;29;20411;-78
2023/10/12 16:14:29;;;;;;;8.70;3.53;;;23.60;69.80;;;;;;4862350;29;20041;-77
2023/10/12 16:16:55;;;;;;;8.10;3.75;;;23.60;68.90;;;;;;4872811;29;20315;-79
2023/10/12 16:19:32;;;;;;;7.60;3.45;;;23.60;68.60;;;;;;4873213;29;20080;-77
2023/10/12 16:22:08;;;;;;;8.48;3.33;;;23.60;68.30;;;;;;4874131;29;20033;-77
2023/10/12 16:24:35;;;;;;;9.93;3.42;;;23.60;68.20;;;;;;4895643;29;20064;-76
2023/10/12 16:27:24;;;;;;;13.85;3.83;;;23.60;68.20;;;;;;4860452;29;20046;-78
2023/10/12 16:29:50;;;;;;;6.68;3.35;;;23.50;68.50;;;;;;4843362;29;20120;-77
2023/10/12 16:32:16;;;;;;;8.77;3.70;;;23.50;68.30;;;;;;4860619;29;20212;-76
2023/10/12 16:34:43;;;;;;;9.80;3.50;;;23.50;68.60;;;;;;4835162;29;20060;-79
2023/10/12 16:37:09;;;;;;;5.85;3.10;;;23.40;69.00;;;;;;4820029;29;20033;-78
2023/10/12 16:39:37;;;;;;;6.25;3.22;;;23.30;69.10;;;;;;4835361;29;20037;-77
2023/10/12 16:42:04;;;;;;;6.43;3.10;;;23.10;69.90;;;;;;4819357;29;20280;-76
2023/10/12 16:44:30;;;;;;;6.63;3.63;;;23.00;70.00;;;;;;4835236;29;20072;-77
2023/10/12 16:46:56;;;;;;;8.35;3.42;;;23.00;70.90;;;;;;4819160;29;20049;-77
2023/10/12 16:49:31;;;;;;;8.77;3.35;;;22.90;72.50;;;;;;4835011;29;20046;-79
2023/10/12 16:51:56;;;;;;;9.52;4.75;;;22.90;73.10;;;;;;4834633;29;20042;-77
2023/10/12 16:54:22;;;;;;;6.82;4.00;;;22.90;76.00;;;;;;4819768;29;20342;-76
2023/10/12 16:56:52;;;;;;;9.68;4.72;;;22.70;77.10;;;;;;4850886;29;20034;-77
2023/10/12 16:59:19;;;;;;;7.90;4.28;;;22.60;75.70;;;;;;4871611;29;20029;-77
2023/10/12 17:01:45;;;;;;;9.68;5.30;;;22.50;74.90;;;;;;4856004;29;20104;-78
2023/10/12 17:07:31;;;;;;;10.60;4.78;;;22.30;76.80;;;;;;4872276;29;20043;-76
2023/10/12 17:10:36;;;;;;;11.07;5.28;;;22.10;77.30;;;;;;4888258;29;20060;-80
2023/10/12 17:13:04;;;;;;;10.13;5.63;;;21.90;78.50;;;;;;4887936;29;20100;-77
2023/10/12 17:15:30;;;;;;;9.43;5.13;;;21.80;80.50;;;;;;4888664;29;20032;-81
2023/10/12 17:18:03;;;;;;;9.95;5.20;;;21.60;81.30;;;;;;4887730;29;20080;-78
2023/10/12 17:20:34;;;;;;;12.40;5.20;;;21.40;81.90;;;;;;4869806;29;20108;-79
2023/10/12 17:23:00;;;;;;;11.25;4.45;;;21.20;81.50;;;;;;4888905;29;20033;-78
2023/10/12 17:25:26;;;;;;;9.32;4.55;;;21.10;80.70;;;;;;4887634;29;20386;-80
2023/10/12 17:27:53;;;;;;;8.77;4.40;;;21.00;81.20;;;;;;4889747;29;20247;-78
2023/10/12 17:30:24;;;;;;;11.85;4.85;;;21.00;80.20;;;;;;4872598;29;20187;-78
2023/10/12 17:32:50;;;;;;;11.10;4.57;;;20.90;80.20;;;;;;4872140;29;20073;-78
2023/10/12 17:35:51;;;;;;;10.75;4.80;;;20.90;79.20;;;;;;4872044;29;20112;-79
2023/10/12 17:39:00;;;;;;;10.60;5.07;;;20.80;79.50;;;;;;4892610;29;20076;-78
2023/10/12 17:41:32;;;;;;;9.07;4.95;;;20.80;80.70;;;;;;4886929;29;20287;-79
2023/10/12 17:43:57;;;;;;;12.43;6.18;;;20.70;81.10;;;;;;4891741;29;20100;-77
2023/10/12 17:46:25;;;;;;;12.25;6.68;;;20.70;82.10;;;;;;4888263;29;20040;-78
2023/10/12 17:48:53;;;;;;;14.03;7.00;;;20.70;83.10;;;;;;4891107;29;20043;-78
2023/10/12 17:51:58;;;;;;;13.35;6.60;;;20.60;83.20;;;;;;4878112;29;20461;-77
2023/10/12 17:54:24;;;;;;;9.13;6.05;;;20.50;83.20;;;;;;4891815;29;20112;-79
2023/10/12 17:57:00;;;;;;;12.20;6.63;;;20.40;83.80;;;;;;4859378;29;20037;-79
2023/10/12 17:59:38;;;;;;;12.55;6.93;;;20.40;83.60;;;;;;4891615;29;20060;-78
2023/10/12 18:02:20;;;;;;;15.10;8.27;;;20.40;83.40;;;;;;4891287;29;20036;-78
2023/10/12 18:05:01;;;;;;;17.95;9.05;;;20.40;83.00;;;;;;4859788;29;20215;-79
2023/10/12 18:07:59;;;;;;;12.55;7.22;;;20.40;83.10;;;;;;4875505;29;20040;-79
2023/10/12 18:10:25;;;;;;;;;;;20.40;81.60;;;;;;4859883;29;20234;-79
2023/10/12 18:13:22;;;;;;;10.80;4.82;;;20.40;80.10;;;;;;4859748;29;20089;-78
2023/10/12 18:16:27;;;;;;;10.95;5.00;;;20.50;79.30;;;;;;4839705;29;20029;-80
2023/10/12 18:19:08;;;;;;;11.40;5.15;;;20.50;79.50;;;;;;4852450;29;20376;-78
2023/10/12 18:22:29;;;;;;;11.45;6.10;;;20.60;79.40;;;;;;4852359;29;20112;-80
2023/10/12 18:24:57;;;;;;;11.20;5.70;;;20.60;80.40;;;;;;4836877;29;20038;-79
2023/10/12 18:27:52;;;;;;;11.45;5.10;;;20.60;78.80;;;;;;4852760;29;20045;-77
2023/10/12 18:34:45;;;;;;;8.88;4.70;;;20.70;78.40;;;;;;4848628;29;20113;-78
2023/10/12 18:37:11;;;;;;;10.40;6.07;;;20.70;77.80;;;;;;4837250;29;20427;-80
2023/10/12 18:39:37;;;;;;;10.80;6.10;;;20.70;80.80;;;;;;4852512;29;20128;-77
2023/10/12 18:42:03;;;;;;;12.60;7.38;;;20.60;80.90;;;;;;4804881;29;20194;-79
2023/10/12 18:44:45;;;;;;;10.15;5.70;;;20.60;81.10;;;;;;4820973;29;20053;-80
2023/10/12 18:47:11;;;;;;;11.07;4.70;;;20.50;78.60;;;;;;4818309;29;20046;-77
2023/10/12 18:49:37;;;;;;;14.13;6.70;;;20.50;78.30;;;;;;4833657;29;20264;-78
2023/10/12 18:52:03;;;;;;;10.77;5.93;;;20.50;80.90;;;;;;4803865;29;20123;-79
2023/10/12 18:54:28;;;;;;;11.50;5.75;;;20.40;80.10;;;;;;4858926;29;20033;-79
2023/10/12 18:56:54;;;;;;;12.05;4.82;;;20.40;80.20;;;;;;4858773;29;20025;-80
2023/10/12 19:00:19;;;;;;;12.82;5.88;;;20.30;79.10;;;;;;4874490;29;20020;-80
2023/10/12 19:03:14;;;;;;;10.93;5.10;;;20.40;79.10;;;;;;4858196;29;20037;-79
2023/10/12 19:06:48;;;;;;;10.80;5.50;;;20.40;80.70;;;;;;4824063;29;20345;-78
2023/10/12 19:10:30;;;;;;;9.55;5.00;;;20.30;78.50;;;;;;4890305;29;20036;-79
2023/10/12 19:13:53;;;;;;;8.32;4.03;;;20.40;78.10;;;;;;4833437;29;20374;-79
2023/10/12 19:16:23;;;;;;;10.77;4.80;;;20.60;76.40;;;;;;4843696;29;20217;-77
2023/10/12 19:18:57;;;;;;;12.00;5.18;;;20.60;75.80;;;;;;4843704;29;20101;-77
2023/10/12 19:21:49;;;;;;;9.80;4.72;;;20.70;75.50;;;;;;4847930;29;20053;-79
2023/10/12 19:24:17;;;;;;;8.68;4.05;;;20.80;75.30;;;;;;4846194;29;20103;-78
2023/10/12 19:26:57;;;;;;;9.20;3.88;;;20.80;75.00;;;;;;4846758;29;20049;-77
2023/10/12 19:29:23;;;;;;;7.88;3.65;;;20.80;74.80;;;;;;4834771;29;20075;-77
2023/10/12 19:32:32;;;;;;;6.95;3.75;;;20.80;74.90;;;;;;4833658;29;20034;-77
2023/10/12 19:34:58;;;;;;;10.50;4.35;;;20.80;74.40;;;;;;4833643;29;20057;-78
2023/10/12 19:37:35;;;;;;;8.90;4.32;;;20.70;74.70;;;;;;4818037;29;20047;-78
2023/10/12 19:40:16;;;;;;;12.02;3.75;;;20.70;74.60;;;;;;4827474;29;20035;-80
2023/10/12 19:42:49;;;;;;;8.25;4.07;;;20.70;74.60;;;;;;4816336;29;20043;-80
2023/10/12 19:45:16;;;;;;;11.88;3.85;;;20.80;73.50;;;;;;4814616;29;20102;-80
2023/10/12 19:47:56;;;;;;;13.65;4.22;;;20.80;73.90;;;;;;4828892;29;20060;-78
2023/10/12 19:50:23;;;;;;;10.18;4.00;;;20.80;73.50;;;;;;4873280;29;20051;-78
2023/10/12 19:52:59;;;;;;;10.73;3.75;;;20.90;73.40;;;;;;4890040;29;20315;-77
2023/10/12 19:55:25;;;;;;;7.18;4.15;;;20.90;73.50;;;;;;4889875;29;20342;-79
2023/10/12 19:57:53;;;;;;;10.40;3.90;;;21.00;72.90;;;;;;4891449;29;20056;-78
2023/10/12 20:00:29;;;;;;;9.25;3.50;;;21.00;72.50;;;;;;4888954;29;20239;-78
2023/10/12 20:05:37;;;;;;;15.40;5.18;;;20.90;72.60;;;;;;4891321;29;20033;-78
2023/10/12 20:08:05;;;;;;;8.13;3.92;;;20.90;73.30;;;;;;4890893;29;20033;-79
2023/10/12 20:10:34;;;;;;;11.55;4.93;;;20.70;75.90;;;;;;4879804;29;20069;-79
2023/10/12 20:13:09;;;;;;;11.90;5.18;;;20.60;77.50;;;;;;4869763;29;20025;-79
2023/10/12 20:15:49;;;;;;;9.40;4.47;;;20.40;77.70;;;;;;4854520;29;20034;-79
2023/10/12 20:18:31;;;;;;;12.45;4.90;;;20.40;78.00;;;;;;4839373;29;20021;-79
2023/10/12 20:20:58;;;;;;;8.82;4.45;;;20.30;77.50;;;;;;4869703;29;20045;-80
2023/10/12 20:23:59;;;;;;;;;;;;;;;;;;;;;
2023/10/12 20:26:44;;;;;;;9.13;4.43;;;20.10;79.20;;;;;;4869754;29;20089;-78
2023/10/12 20:29:49;;;;;;;10.95;4.93;;;20.00;79.00;;;;;;4836618;29;20045;-80
2023/10/12 20:32:47;;;;;;;8.13;3.72;;;20.00;78.90;;;;;;4821317;29;20077;-78
2023/10/12 20:35:19;;;;;;;9.55;4.50;;;20.00;78.50;;;;;;4820832;29;20037;-78
2023/10/12 20:37:46;;;;;;;8.88;4.80;;;20.00;78.50;;;;;;4852035;29;20034;-78
2023/10/12 20:40:12;;;;;;;9.95;5.00;;;19.90;78.70;;;;;;4840260;29;20040;-79
2023/10/12 20:43:54;;;;;;;11.02;5.03;;;19.90;80.10;;;;;;4854483;29;20017;-81
2023/10/12 20:46:43;;;;;;;;;;;19.80;81.40;;;;;;4811412;29;20045;-80
2023/10/12 20:53:45;;;;;;;11.73;5.55;;;19.50;82.00;;;;;;4832098;29;20037;-78
2023/10/12 21:00:18;;;;;;;10.43;4.70;;;19.40;81.80;;;;;;4808268;29;20027;-80
2023/10/12 21:03:49;;;;;;;11.43;5.22;;;19.40;81.60;;;;;;4741545;29;20047;-79
2023/10/12 21:06:35;;;;;;;8.60;5.00;;;19.30;81.70;;;;;;4829083;29;20359;-78
2023/10/12 21:09:33;;;;;;;10.10;4.90;;;19.30;81.20;;;;;;4820644;29;20197;-79
2023/10/12 21:12:53;;;;;;;;;;;;;;;;;;;;;
2023/10/12 21:15:23;;;;;;;9.18;4.78;;;19.30;81.30;;;;;;4838113;29;20125;-79
2023/10/12 21:17:58;;;;;;;10.73;4.28;;;19.20;81.50;;;;;;4854039;29;20038;-79
2023/10/12 21:22:56;;;;;;;10.88;5.05;;;19.20;81.50;;;;;;4853817;29;20221;-79
2023/10/12 21:25:25;;;;;;;9.65;4.43;;;19.20;82.70;;;;;;4853230;29;20041;-80
2023/10/12 21:27:54;;;;;;;8.85;4.82;;;19.10;83.00;;;;;;4853757;29;20041;-79
2023/10/12 21:30:25;;;;;;;13.27;5.60;;;19.10;83.50;;;;;;4870778;29;20115;-79
2023/10/12 21:32:51;;;;;;;9.75;5.00;;;19.00;83.70;;;;;;4891553;29;20362;-80
2023/10/12 21:35:21;;;;;;;10.32;5.53;;;19.00;83.90;;;;;;4891966;29;20033;-77
2023/10/12 21:37:48;;;;;;;11.45;5.45;;;18.90;85.00;;;;;;4891742;29;20032;-79
2023/10/12 21:43:06;;;;;;;9.10;5.35;;;18.80;85.20;;;;;;4892501;29;20036;-79
2023/10/12 21:45:32;;;;;;;7.88;4.78;;;18.70;85.30;;;;;;4892495;29;20323;-78
2023/10/12 21:48:24;;;;;;;10.18;5.80;;;18.70;85.40;;;;;;4892419;29;20056;-78
2023/10/12 21:50:51;;;;;;;11.45;6.45;;;18.60;86.10;;;;;;4867433;29;20120;-77
2023/10/12 21:53:30;;;;;;;12.27;6.72;;;18.60;87.20;;;;;;4891700;29;20092;-78
2023/10/12 21:56:02;;;;;;;10.52;5.93;;;18.50;86.60;;;;;;4875014;29;20133;-78
2023/10/12 21:58:29;;;;;;;9.45;5.50;;;18.50;87.10;;;;;;4875969;29;20021;-79
2023/10/12 22:00:58;;;;;;;14.35;6.25;;;18.50;86.80;;;;;;4862044;29;20033;-77
2023/10/12 22:03:24;;;;;;;12.98;6.13;;;18.50;87.70;;;;;;4889897;29;20026;-78
2023/10/12 22:05:50;;;;;;;11.60;5.88;;;18.50;86.60;;;;;;4889684;29;20034;-77
2023/10/12 22:08:20;;;;;;;12.60;5.57;;;18.40;86.80;;;;;;4874744;29;20033;-77
2023/10/12 22:10:50;;;;;;;9.48;5.20;;;18.50;87.20;;;;;;4874108;29;20068;-79
2023/10/12 22:13:20;;;;;;;12.70;5.90;;;18.50;88.10;;;;;;4874918;29;20038;-78
2023/10/12 22:15:52;;;;;;;8.85;5.43;;;18.50;87.10;;;;;;4873621;29;20065;-77
2023/10/12 22:18:20;;;;;;;10.35;5.88;;;18.40;87.90;;;;;;4840529;29;20034;-79
2023/10/12 22:20:46;;;;;;;10.53;5.13;;;18.40;88.10;;;;;;4872942;29;20033;-78
2023/10/12 22:23:12;;;;;;;11.30;5.75;;;18.40;87.50;;;;;;4871047;29;20029;-78
2023/10/12 22:25:39;;;;;;;11.27;6.13;;;18.40;88.60;;;;;;4872026;29;20025;-77
2023/10/12 22:28:07;;;;;;;10.65;5.72;;;18.40;88.40;;;;;;4887103;29;20034;-78
2023/10/12 22:30:34;;;;;;;12.60;6.55;;;18.40;87.40;;;;;;4872256;29;20342;-79
2023/10/12 22:33:02;;;;;;;11.52;5.85;;;18.40;87.40;;;;;;4870991;29;20193;-79
2023/10/12 22:35:31;;;;;;;10.52;6.03;;;18.40;88.90;;;;;;4872909;29;20042;-78
2023/10/12 22:38:00;;;;;;;12.52;6.28;;;18.40;88.90;;;;;;4871504;29;20207;-79